sensor_id;sensor_type;location;lat;lon;timestamp;pressure;altitude;pressure_sealevel;temperature;humidity
36304;BME280;22335;49.800;8.596;2023-08-12T00:02:40;100645.03;;;29.30;43.80
36304;BME280;22335;49.800;8.596;2023-08-12T00:09:24;100647.88;;;29.19;44.58
36304;BME280;22335;49.800;8.596;2023-08-12T00:16:09;100627.38;;;29.08;45.34
36304;BME280;22335;49.800;8.596;2023-08-12T00:22:53;100640.28;;;29.05;45.31
36304;BME280;22335;49.800;8.596;2023-08-12T00:29:36;100629.00;;;28.98;44.92
36304;BME280;22335;49.800;8.596;2023-08-12T00:36:21;100600.03;;;29.01;44.75
36304;BME280;22335;49.800;8.596;2023-08-12T00:43:05;100595.63;;;28.93;45.01
36304;BME280;22335;49.800;8.596;2023-08-12T00:49:48;100519.75;;;28.43;45.49
36304;BME280;22335;49.800;8.596;2023-08-12T00:56:35;100563.56;;;28.62;45.47
36304;BME280;22335;49.800;8.596;2023-08-12T01:03:18;100568.00;;;28.45;45.71
36304;BME280;22335;49.800;8.596;2023-08-12T01:10:03;100559.94;;;28.36;45.89
36304;BME280;22335;49.800;8.596;2023-08-12T01:16:51;100568.38;;;28.36;46.16
36304;BME280;22335;49.800;8.596;2023-08-12T01:23:41;100555.53;;;28.28;46.57
36304;BME280;22335;49.800;8.596;2023-08-12T01:30:24;100565.56;;;28.36;45.73
36304;BME280;22335;49.800;8.596;2023-08-12T01:37:11;100578.03;;;28.24;46.50
36304;BME280;22335;49.800;8.596;2023-08-12T01:44:01;100593.69;;;28.08;47.01
36304;BME280;22335;49.800;8.596;2023-08-12T01:50:46;100588.88;;;27.97;47.40
36304;BME280;22335;49.800;8.596;2023-08-12T01:57:29;100593.69;;;27.90;47.37
36304;BME280;22335;49.800;8.596;2023-08-12T02:04:14;100568.00;;;27.91;47.56
36304;BME280;22335;49.800;8.596;2023-08-12T02:10:58;100578.81;;;27.93;47.06
36304;BME280;22335;49.800;8.596;2023-08-12T02:17:41;100593.28;;;27.95;47.56
36304;BME280;22335;49.800;8.596;2023-08-12T02:24:26;100595.69;;;27.96;47.70
36304;BME280;22335;49.800;8.596;2023-08-12T02:31:09;100597.69;;;27.96;48.09
36304;BME280;22335;49.800;8.596;2023-08-12T02:37:53;100629.84;;;27.88;48.42
36304;BME280;22335;49.800;8.596;2023-08-12T02:44:37;100651.03;;;27.60;48.92
36304;BME280;22335;49.800;8.596;2023-08-12T03:06:25;100645.75;;;27.44;49.88
36304;BME280;22335;49.800;8.596;2023-08-12T03:13:09;100641.28;;;27.32;50.30
36304;BME280;22335;49.800;8.596;2023-08-12T03:19:53;100636.47;;;27.29;50.34
36304;BME280;22335;49.800;8.596;2023-08-12T03:26:38;100646.91;;;27.32;50.50
36304;BME280;22335;49.800;8.596;2023-08-12T03:33:21;100645.69;;;27.37;50.88
36304;BME280;22335;49.800;8.596;2023-08-12T03:40:08;100617.19;;;27.31;51.61
36304;BME280;22335;49.800;8.596;2023-08-12T03:46:55;100608.34;;;27.26;51.72
36304;BME280;22335;49.800;8.596;2023-08-12T03:53:40;100601.13;;;27.28;52.10
36304;BME280;22335;49.800;8.596;2023-08-12T04:00:25;100615.16;;;27.21;52.52
36304;BME280;22335;49.800;8.596;2023-08-12T04:07:13;100603.09;;;27.21;52.90
36304;BME280;22335;49.800;8.596;2023-08-12T04:13:56;100602.34;;;27.27;52.86
36304;BME280;22335;49.800;8.596;2023-08-12T04:20:40;100591.50;;;27.26;53.08
36304;BME280;22335;49.800;8.596;2023-08-12T04:27:24;100580.28;;;27.29;53.09
36304;BME280;22335;49.800;8.596;2023-08-12T04:34:08;100573.00;;;27.14;53.17
36304;BME280;22335;49.800;8.596;2023-08-12T04:40:52;100574.25;;;27.27;53.53
36304;BME280;22335;49.800;8.596;2023-08-12T04:47:38;100572.25;;;27.31;53.17
36304;BME280;22335;49.800;8.596;2023-08-12T04:54:21;100569.84;;;27.30;53.54
36304;BME280;22335;49.800;8.596;2023-08-12T05:01:05;100570.63;;;27.27;53.86
36304;BME280;22335;49.800;8.596;2023-08-12T05:07:52;100556.63;;;27.38;52.83
36304;BME280;22335;49.800;8.596;2023-08-12T05:14:36;100567.84;;;27.38;53.83
36304;BME280;22335;49.800;8.596;2023-08-12T05:21:21;100555.44;;;27.39;52.90
36304;BME280;22335;49.800;8.596;2023-08-12T05:28:07;100562.22;;;27.38;54.20
36304;BME280;22335;49.800;8.596;2023-08-12T05:34:51;100540.53;;;27.27;54.52
36304;BME280;22335;49.800;8.596;2023-08-12T05:41:35;100567.03;;;27.30;54.88
36304;BME280;22335;49.800;8.596;2023-08-12T05:48:20;100553.00;;;27.41;55.21
36304;BME280;22335;49.800;8.596;2023-08-12T05:55:19;100546.25;;;27.59;55.13
36304;BME280;22335;49.800;8.596;2023-08-12T06:02:02;100561.56;;;27.91;54.53
36304;BME280;22335;49.800;8.596;2023-08-12T06:08:46;100564.78;;;28.11;54.39
36304;BME280;22335;49.800;8.596;2023-08-12T06:15:31;100553.53;;;28.00;54.62
36304;BME280;22335;49.800;8.596;2023-08-12T06:22:15;100564.34;;;27.87;55.04
36304;BME280;22335;49.800;8.596;2023-08-12T06:28:59;100567.16;;;27.80;55.10
36304;BME280;22335;49.800;8.596;2023-08-12T06:35:45;100561.16;;;27.89;55.01
36304;BME280;22335;49.800;8.596;2023-08-12T06:42:30;100568.41;;;28.04;55.00
36304;BME280;22335;49.800;8.596;2023-08-12T06:49:15;100574.03;;;28.25;54.42
36304;BME280;22335;49.800;8.596;2023-08-12T06:55:59;100572.00;;;28.30;54.89
36304;BME280;22335;49.800;8.596;2023-08-12T07:02:43;100582.88;;;28.42;54.84
36304;BME280;22335;49.800;8.596;2023-08-12T07:09:26;100597.34;;;28.40;55.37
36304;BME280;22335;49.800;8.596;2023-08-12T07:16:11;100588.91;;;28.47;55.28
36304;BME280;22335;49.800;8.596;2023-08-12T07:22:55;100598.50;;;28.39;55.12
36304;BME280;22335;49.800;8.596;2023-08-12T07:29:38;100582.06;;;28.48;55.38
36304;BME280;22335;49.800;8.596;2023-08-12T07:36:23;100577.97;;;28.78;55.38
36304;BME280;22335;49.800;8.596;2023-08-12T07:43:06;100592.44;;;28.84;55.59
36304;BME280;22335;49.800;8.596;2023-08-12T07:49:50;100593.22;;;28.88;54.92
36304;BME280;22335;49.800;8.596;2023-08-12T07:56:34;100585.63;;;28.67;55.41
36304;BME280;22335;49.800;8.596;2023-08-12T08:03:18;100580.44;;;28.65;55.33
36304;BME280;22335;49.800;8.596;2023-08-12T08:10:02;100588.84;;;28.72;55.97
36304;BME280;22335;49.800;8.596;2023-08-12T08:16:47;100577.94;;;28.89;55.02
36304;BME280;22335;49.800;8.596;2023-08-12T08:23:31;100580.75;;;28.85;55.24
36304;BME280;22335;49.800;8.596;2023-08-12T08:30:15;100588.81;;;28.83;55.31
36304;BME280;22335;49.800;8.596;2023-08-12T08:36:59;100588.44;;;28.81;55.54
36304;BME280;22335;49.800;8.596;2023-08-12T08:43:47;100581.97;;;28.88;55.27
36304;BME280;22335;49.800;8.596;2023-08-12T08:50:31;100594.41;;;29.05;55.15
36304;BME280;22335;49.800;8.596;2023-08-12T08:57:16;100595.97;;;29.16;55.35
36304;BME280;22335;49.800;8.596;2023-08-12T09:04:00;100585.88;;;29.23;54.89
36304;BME280;22335;49.800;8.596;2023-08-12T09:10:47;100562.09;;;29.31;54.44
36304;BME280;22335;49.800;8.596;2023-08-12T09:17:32;100562.06;;;29.38;54.51
36304;BME280;22335;49.800;8.596;2023-08-12T09:24:15;100550.31;;;29.50;53.85
36304;BME280;22335;49.800;8.596;2023-08-12T09:30:59;100564.31;;;29.68;54.16
36304;BME280;22335;49.800;8.596;2023-08-12T09:37:44;100529.31;;;29.66;53.85
36304;BME280;22335;49.800;8.596;2023-08-12T09:44:27;100524.72;;;29.86;53.64
36304;BME280;22335;49.800;8.596;2023-08-12T09:51:11;100541.47;;;30.07;54.03
36304;BME280;22335;49.800;8.596;2023-08-12T09:57:56;100545.59;;;30.41;53.89
36304;BME280;22335;49.800;8.596;2023-08-12T10:04:42;100543.25;;;30.36;53.45
36304;BME280;22335;49.800;8.596;2023-08-12T10:11:28;100580.69;;;30.40;53.01
36304;BME280;22335;49.800;8.596;2023-08-12T10:18:13;100635.22;;;30.29;53.04
36304;BME280;22335;49.800;8.596;2023-08-12T10:24:58;100614.63;;;29.77;55.07
36304;BME280;22335;49.800;8.596;2023-08-12T10:31:45;100630.81;;;29.58;56.05
36304;BME280;22335;49.800;8.596;2023-08-12T10:38:31;100631.28;;;29.42;56.32
36304;BME280;22335;49.800;8.596;2023-08-12T10:45:17;100571.06;;;28.97;56.29
36304;BME280;22335;49.800;8.596;2023-08-12T10:52:01;100585.56;;;28.99;57.92
36304;BME280;22335;49.800;8.596;2023-08-12T10:58:47;100586.06;;;28.62;57.92
36304;BME280;22335;49.800;8.596;2023-08-12T11:05:36;100573.59;;;28.38;58.12
36304;BME280;22335;49.800;8.596;2023-08-12T11:12:29;100585.28;;;28.47;58.41
36304;BME280;22335;49.800;8.596;2023-08-12T11:19:14;100574.00;;;28.54;59.33
36304;BME280;22335;49.800;8.596;2023-08-12T11:25:57;100602.56;;;28.45;58.84
36304;BME280;22335;49.800;8.596;2023-08-12T11:32:42;100597.69;;;27.96;59.66
36304;BME280;22335;49.800;8.596;2023-08-12T11:39:28;100581.16;;;27.62;60.61
36304;BME280;22335;49.800;8.596;2023-08-12T11:46:11;100578.34;;;27.55;61.15
36304;BME280;22335;49.800;8.596;2023-08-12T11:52:56;100579.13;;;27.41;61.49
36304;BME280;22335;49.800;8.596;2023-08-12T11:59:41;100569.47;;;27.39;61.89
36304;BME280;22335;49.800;8.596;2023-08-12T12:06:29;100571.88;;;27.44;62.19
36304;BME280;22335;49.800;8.596;2023-08-12T12:13:13;100578.75;;;27.68;62.23
36304;BME280;22335;49.800;8.596;2023-08-12T12:20:00;100564.78;;;27.86;62.07
36304;BME280;22335;49.800;8.596;2023-08-12T12:26:44;100570.78;;;28.05;61.47
36304;BME280;22335;49.800;8.596;2023-08-12T12:33:31;100557.53;;;28.20;61.66
36304;BME280;22335;49.800;8.596;2023-08-12T12:40:16;100539.03;;;28.34;62.21
36304;BME280;22335;49.800;8.596;2023-08-12T12:47:03;100573.22;;;28.54;60.71
36304;BME280;22335;49.800;8.596;2023-08-12T12:53:54;100597.69;;;28.67;61.49
36304;BME280;22335;49.800;8.596;2023-08-12T13:00:42;100565.09;;;28.81;61.48
36304;BME280;22335;49.800;8.596;2023-08-12T13:07:30;100581.53;;;28.89;62.43
36304;BME280;22335;49.800;8.596;2023-08-12T13:14:13;100596.84;;;28.85;62.40
36304;BME280;22335;49.800;8.596;2023-08-12T13:20:59;100571.97;;;28.69;62.50
36304;BME280;22335;49.800;8.596;2023-08-12T13:27:48;100555.94;;;28.44;62.23
36304;BME280;22335;49.800;8.596;2023-08-12T13:34:35;100567.50;;;28.79;62.78
36304;BME280;22335;49.800;8.596;2023-08-12T13:41:22;100534.97;;;28.63;62.54
36304;BME280;22335;49.800;8.596;2023-08-12T13:48:08;100584.81;;;28.70;63.16
36304;BME280;22335;49.800;8.596;2023-08-12T13:54:51;100549.47;;;28.58;63.59
36304;BME280;22335;49.800;8.596;2023-08-12T14:01:39;100529.75;;;28.65;63.17
36304;BME280;22335;49.800;8.596;2023-08-12T14:08:26;100555.47;;;28.67;63.75
36304;BME280;22335;49.800;8.596;2023-08-12T14:15:10;100501.25;;;28.38;63.67
36304;BME280;22335;49.800;8.596;2023-08-12T14:21:58;100525.34;;;28.57;63.38
36304;BME280;22335;49.800;8.596;2023-08-12T14:28:42;100517.72;;;28.40;62.91
36304;BME280;22335;49.800;8.596;2023-08-12T14:35:30;100465.94;;;28.19;63.01
36304;BME280;22335;49.800;8.596;2023-08-12T14:42:18;100483.56;;;28.48;62.73
36304;BME280;22335;49.800;8.596;2023-08-12T14:49:02;100459.50;;;28.40;62.15
36304;BME280;22335;49.800;8.596;2023-08-12T14:55:55;100485.19;;;28.49;62.27
36304;BME280;22335;49.800;8.596;2023-08-12T15:02:40;100479.53;;;28.46;62.00
36304;BME280;22335;49.800;8.596;2023-08-12T15:09:26;100508.50;;;28.46;62.67
36304;BME280;22335;49.800;8.596;2023-08-12T15:16:11;100489.19;;;28.31;62.59
36304;BME280;22335;49.800;8.596;2023-08-12T15:22:55;100501.66;;;28.47;62.54
36304;BME280;22335;49.800;8.596;2023-08-12T15:29:52;100512.91;;;28.47;62.88
36304;BME280;22335;49.800;8.596;2023-08-12T15:36:36;100501.66;;;28.37;63.44
36304;BME280;22335;49.800;8.596;2023-08-12T15:43:23;100447.09;;;28.09;63.18
36304;BME280;22335;49.800;8.596;2023-08-12T15:50:07;100474.38;;;28.19;63.31
36304;BME280;22335;49.800;8.596;2023-08-12T15:56:54;100522.94;;;28.52;63.14
36304;BME280;22335;49.800;8.596;2023-08-12T16:03:42;100502.84;;;28.39;63.52
36304;BME280;22335;49.800;8.596;2023-08-12T16:10:31;100497.25;;;28.28;63.73
36304;BME280;22335;49.800;8.596;2023-08-12T16:17:14;100528.19;;;28.54;63.91
36304;BME280;22335;49.800;8.596;2023-08-12T16:23:59;100504.44;;;28.55;63.84
36304;BME280;22335;49.800;8.596;2023-08-12T16:30:49;100513.69;;;28.62;64.22
36304;BME280;22335;49.800;8.596;2023-08-12T16:37:33;100508.00;;;28.73;64.36
36304;BME280;22335;49.800;8.596;2023-08-12T16:44:21;100513.63;;;28.77;63.93
36304;BME280;22335;49.800;8.596;2023-08-12T16:51:04;100518.47;;;28.72;63.90
36304;BME280;22335;49.800;8.596;2023-08-12T16:57:48;100522.09;;;28.69;64.06
36304;BME280;22335;49.800;8.596;2023-08-12T17:04:33;100506.03;;;28.63;64.28
36304;BME280;22335;49.800;8.596;2023-08-12T17:11:22;100473.16;;;28.31;64.08
36304;BME280;22335;49.800;8.596;2023-08-12T17:18:11;100508.91;;;28.45;64.92
36304;BME280;22335;49.800;8.596;2023-08-12T17:25:01;100515.34;;;28.53;65.08
36304;BME280;22335;49.800;8.596;2023-08-12T17:31:48;100523.78;;;28.53;65.05
36304;BME280;22335;49.800;8.596;2023-08-12T17:38:32;100488.81;;;28.28;65.56
36304;BME280;22335;49.800;8.596;2023-08-12T17:45:24;100522.91;;;28.70;65.50
36304;BME280;22335;49.800;8.596;2023-08-12T17:52:08;100525.28;;;28.79;64.68
36304;BME280;22335;49.800;8.596;2023-08-12T17:58:58;100533.31;;;28.87;65.07
36304;BME280;22335;49.800;8.596;2023-08-12T18:05:45;100538.88;;;29.02;64.97
36304;BME280;22335;49.800;8.596;2023-08-12T18:12:29;100539.25;;;29.14;64.23
36304;BME280;22335;49.800;8.596;2023-08-12T18:19:20;100558.09;;;29.25;63.40
36304;BME280;22335;49.800;8.596;2023-08-12T18:26:05;100529.97;;;29.14;62.42
36304;BME280;22335;49.800;8.596;2023-08-12T18:32:51;100551.69;;;29.24;60.72
36304;BME280;22335;49.800;8.596;2023-08-12T18:39:34;100562.94;;;29.28;59.82
36304;BME280;22335;49.800;8.596;2023-08-12T18:46:19;100452.19;;;28.57;59.45
36304;BME280;22335;49.800;8.596;2023-08-12T18:53:03;100572.97;;;29.29;59.17
36304;BME280;22335;49.800;8.596;2023-08-12T18:59:47;100544.50;;;29.12;58.62
36304;BME280;22335;49.800;8.596;2023-08-12T19:06:35;100574.59;;;29.30;58.59
36304;BME280;22335;49.800;8.596;2023-08-12T19:13:19;100599.13;;;29.29;59.07
36304;BME280;22335;49.800;8.596;2023-08-12T19:20:03;100575.06;;;29.10;59.28
36304;BME280;22335;49.800;8.596;2023-08-12T19:26:51;100600.38;;;29.25;59.39
36304;BME280;22335;49.800;8.596;2023-08-12T19:33:37;100591.59;;;29.01;58.88
36304;BME280;22335;49.800;8.596;2023-08-12T19:40:31;100602.47;;;28.99;58.56
36304;BME280;22335;49.800;8.596;2023-08-12T19:47:16;100612.09;;;29.09;58.46
36304;BME280;22335;49.800;8.596;2023-08-12T19:54:03;100630.63;;;28.99;58.89
36304;BME280;22335;49.800;8.596;2023-08-12T20:00:46;100641.88;;;28.92;58.55
36304;BME280;22335;49.800;8.596;2023-08-12T20:07:31;100622.59;;;28.83;58.05
36304;BME280;22335;49.800;8.596;2023-08-12T20:14:15;100646.31;;;28.86;58.31
36304;BME280;22335;49.800;8.596;2023-08-12T20:20:58;100649.97;;;28.76;57.70
36304;BME280;22335;49.800;8.596;2023-08-12T20:27:49;100654.81;;;28.68;58.07
36304;BME280;22335;49.800;8.596;2023-08-12T20:34:33;100669.69;;;28.68;57.70
36304;BME280;22335;49.800;8.596;2023-08-12T20:41:16;100666.06;;;28.57;57.65
36304;BME280;22335;49.800;8.596;2023-08-12T20:48:01;100662.84;;;28.44;57.33
36304;BME280;22335;49.800;8.596;2023-08-12T20:54:45;100673.25;;;28.33;57.47
36304;BME280;22335;49.800;8.596;2023-08-12T21:01:28;100676.50;;;28.35;57.15
36304;BME280;22335;49.800;8.596;2023-08-12T21:08:14;100647.53;;;28.17;56.89
36304;BME280;22335;49.800;8.596;2023-08-12T21:14:57;100691.34;;;28.28;56.84
36304;BME280;22335;49.800;8.596;2023-08-12T21:21:41;100690.47;;;27.96;57.44
36304;BME280;22335;49.800;8.596;2023-08-12T21:28:25;100674.41;;;27.86;57.75
36304;BME280;22335;49.800;8.596;2023-08-12T21:35:09;100664.63;;;27.47;58.12
36304;BME280;22335;49.800;8.596;2023-08-12T21:41:53;100372.84;;;25.46;58.59
36304;BME280;22335;49.800;8.596;2023-08-12T21:48:37;100638.69;;;26.99;59.14
36304;BME280;22335;49.800;8.596;2023-08-12T21:55:21;100699.38;;;27.21;59.54
36304;BME280;22335;49.800;8.596;2023-08-12T22:02:04;100688.47;;;27.12;59.89
36304;BME280;22335;49.800;8.596;2023-08-12T22:08:49;100675.31;;;27.17;59.85
36304;BME280;22335;49.800;8.596;2023-08-12T22:15:33;100683.78;;;27.27;59.53
36304;BME280;22335;49.800;8.596;2023-08-12T22:22:17;100658.78;;;27.08;59.37
36304;BME280;22335;49.800;8.596;2023-08-12T22:29:02;100684.19;;;27.29;59.36
36304;BME280;22335;49.800;8.596;2023-08-12T22:35:46;100678.13;;;27.20;59.05
36304;BME280;22335;49.800;8.596;2023-08-12T22:42:29;100656.78;;;27.08;58.90
36304;BME280;22335;49.800;8.596;2023-08-12T22:49:15;100690.63;;;27.33;59.23
36304;BME280;22335;49.800;8.596;2023-08-12T22:55:58;100688.97;;;27.22;59.48
36304;BME280;22335;49.800;8.596;2023-08-12T23:02:41;100670.38;;;27.06;60.07
36304;BME280;22335;49.800;8.596;2023-08-12T23:09:26;100665.59;;;27.07;60.40
36304;BME280;22335;49.800;8.596;2023-08-12T23:16:10;100674.84;;;27.11;60.05
36304;BME280;22335;49.800;8.596;2023-08-12T23:22:53;100675.69;;;27.15;60.01
36304;BME280;22335;49.800;8.596;2023-08-12T23:29:38;100664.41;;;27.08;60.20
36304;BME280;22335;49.800;8.596;2023-08-12T23:36:22;100656.63;;;26.87;60.21
36304;BME280;22335;49.800;8.596;2023-08-12T23:43:05;100681.56;;;26.96;60.19
36304;BME280;22335;49.800;8.596;2023-08-12T23:49:51;100670.66;;;26.83;60.53
36304;BME280;22335;49.800;8.596;2023-08-12T23:56:35;100686.09;;;26.56;61.21
